Time;durP1;ratioP1;P1;durP2;ratioP2;P2;SDS_P1;SDS_P2;PMS_P1;PMS_P2;Temp;Humidity;BMP_temperature;BMP_pressure;BME280_temperature;BME280_humidity;BME280_pressure;Samples;Min_cycle;Max_cycle;Signal;HPM_P1;HPM_P2
2022/03/19 00:01:13;;;;;;;;;;;8.20;99.90;;;;;;5094516;28;19909;-81
2022/03/19 00:03:40;;;;;;;;;;;8.10;99.90;;;;;;5093160;28;20249;-81
2022/03/19 00:06:05;;;;;;;;;;;8.10;99.90;;;;;;5094429;28;19930;-80
2022/03/19 00:08:31;;;;;;;;;;;8.10;99.90;;;;;;5104467;28;20317;-81
2022/03/19 00:10:57;;;;;;;;;;;8.10;99.90;;;;;;5094163;28;19915;-81
2022/03/19 00:13:22;;;;;;;;;;;8.20;99.90;;;;;;5092080;28;19971;-80
2022/03/19 00:15:48;;;;;;;;;;;8.20;99.90;;;;;;5094323;28;19909;-81
2022/03/19 00:18:14;;;;;;;;;;;8.20;99.90;;;;;;5094183;28;20369;-79
2022/03/19 00:20:39;;;;;;;;;;;8.20;99.90;;;;;;5093575;28;19908;-79
2022/03/19 00:23:06;;;;;;;;;;;8.20;99.90;;;;;;5094035;28;19909;-80
2022/03/19 00:25:31;;;;;;;;;;;8.20;99.90;;;;;;5093083;28;20314;-79
2022/03/19 00:27:57;;;;;;;;;;;8.20;99.90;;;;;;5093779;28;19915;-78
2022/03/19 00:30:23;;;;;;;;;;;8.10;99.90;;;;;;5093322;28;19912;-78
2022/03/19 00:32:48;;;;;;;;;;;8.10;99.90;;;;;;5093626;28;19915;-79
2022/03/19 00:35:15;;;;;;;;;;;8.10;99.90;;;;;;5093533;28;19990;-80
2022/03/19 00:37:47;;;;;;;;;;;8.10;99.90;;;;;;5092972;28;19977;-79
2022/03/19 00:40:14;;;;;;;;;;;8.10;99.90;;;;;;5126581;27;19912;-80
2022/03/19 00:42:39;;;;;;;;;;;8.00;99.90;;;;;;5092960;28;19915;-79
2022/03/19 00:45:05;;;;;;;;;;;8.00;99.90;;;;;;5093768;28;19995;-79
2022/03/19 00:47:31;;;;;;;;;;;8.00;99.90;;;;;;5092935;28;20372;-80
2022/03/19 00:49:56;;;;;;;;;;;8.10;99.90;;;;;;5094243;28;19908;-78
2022/03/19 00:52:22;;;;;;;;;;;8.00;99.90;;;;;;5093874;28;20057;-77
2022/03/19 00:54:48;;;;;;;;;;;8.00;99.90;;;;;;5093806;28;19916;-78
2022/03/19 00:57:13;;;;;;;;;;;8.10;99.90;;;;;;5093685;28;19948;-78
2022/03/19 00:59:39;;;;;;;;;;;8.10;99.90;;;;;;5093385;28;19909;-78
2022/03/19 01:02:05;;;;;;;;;;;8.10;99.90;;;;;;5093394;28;19909;-78
2022/03/19 01:04:31;;;;;;;;;;;8.10;99.90;;;;;;5093036;28;20297;-77
2022/03/19 01:06:56;;;;;;;;;;;8.20;99.90;;;;;;5093655;28;19909;-78
2022/03/19 01:09:22;;;;;;;;;;;8.30;99.90;;;;;;5093696;28;19908;-78
2022/03/19 01:11:47;;;;;;;;;;;8.30;99.90;;;;;;5092935;28;19908;-78
2022/03/19 01:14:13;;;;;;;;;;;8.40;99.90;;;;;;5092499;28;19920;-77
2022/03/19 01:16:39;;;;;;;;;;;8.50;99.90;;;;;;5092964;28;20353;-77
2022/03/19 01:19:04;;;;;;;;;;;8.50;99.90;;;;;;5093708;28;19908;-77
2022/03/19 01:21:30;;;;;;;;;;;8.50;99.90;;;;;;5093066;28;19939;-77
2022/03/19 01:23:55;;;;;;;;;;;8.60;99.90;;;;;;5104215;28;19908;-77
2022/03/19 01:26:21;;;;;;;;;;;8.70;99.90;;;;;;5093487;28;20360;-78
2022/03/19 01:28:46;;;;;;;;;;;8.70;99.90;;;;;;5092567;28;20233;-77
2022/03/19 01:31:12;;;;;;;;;;;8.80;99.90;;;;;;5093454;28;20015;-77
2022/03/19 01:33:38;;;;;;;;;;;8.90;99.90;;;;;;5092502;28;20353;-77
2022/03/19 01:36:04;;;;;;;;;;;9.00;99.90;;;;;;5091858;28;20363;-77
2022/03/19 01:38:29;;;;;;;;;;;9.00;99.90;;;;;;5125566;27;20002;-76
2022/03/19 01:40:55;;;;;;;;;;;9.00;99.90;;;;;;5093078;28;20391;-78
2022/03/19 01:43:20;;;;;;;;;;;9.00;99.90;;;;;;5092885;28;20098;-77
2022/03/19 01:45:46;;;;;;;;;;;9.00;99.90;;;;;;5092755;28;19916;-77
2022/03/19 01:48:12;;;;;;;;;;;9.00;99.90;;;;;;5093243;28;19908;-77
2022/03/19 01:50:37;;;;;;;;;;;9.00;99.90;;;;;;5092435;28;19915;-77
2022/03/19 01:53:03;;;;;;;;;;;9.10;99.90;;;;;;5093050;28;19935;-78
2022/03/19 01:55:28;;;;;;;;;;;9.20;99.90;;;;;;5092865;28;19961;-77
2022/03/19 01:57:55;;;;;;;;;;;9.20;99.90;;;;;;5091542;28;19931;-78
2022/03/19 02:00:22;;;;;;;;;;;9.30;99.90;;;;;;5092889;28;19915;-78
2022/03/19 02:02:48;;;;;;;;;;;9.30;99.90;;;;;;5092549;28;19977;-78
2022/03/19 02:05:15;;;;;;;;;;;9.40;99.90;;;;;;5093087;28;19915;-78
2022/03/19 02:07:41;;;;;;;;;;;9.40;99.90;;;;;;5091900;28;20262;-77
2022/03/19 02:10:07;;;;;;;;;;;9.40;99.90;;;;;;5092855;28;19908;-77
2022/03/19 02:12:33;;;;;;;;;;;9.40;99.90;;;;;;5092452;28;19919;-77
2022/03/19 02:14:59;;;;;;;;;;;9.40;99.90;;;;;;5092897;28;19916;-78
2022/03/19 02:17:26;;;;;;;;;;;9.40;99.90;;;;;;5092991;28;19915;-78
2022/03/19 02:19:55;;;;;;;;;;;9.30;99.90;;;;;;5092029;28;19909;-77
2022/03/19 02:22:21;;;;;;;;;;;9.30;99.90;;;;;;5093532;28;19908;-78
2022/03/19 02:27:31;;;;;;;;;;;9.30;99.90;;;;;;5096695;28;20376;-76
2022/03/19 02:29:58;;;;;;;;;;;9.30;99.90;;;;;;5096750;28;19941;-78
2022/03/19 02:32:24;;;;;;;;;;;9.30;99.90;;;;;;5097070;28;19947;-78
2022/03/19 02:34:50;;;;;;;;;;;9.30;99.90;;;;;;5095889;28;20750;-78
2022/03/19 02:37:15;;;;;;;;;;;9.30;99.90;;;;;;5097449;28;19908;-77
2022/03/19 02:39:41;;;;;;;;;;;9.30;99.90;;;;;;5097452;28;19915;-78
2022/03/19 02:42:07;;;;;;;;;;;9.20;99.90;;;;;;5096811;28;19931;-78
2022/03/19 02:44:33;;;;;;;;;;;9.20;99.90;;;;;;5095865;28;20014;-77
2022/03/19 02:47:00;;;;;;;;;;;9.10;99.90;;;;;;5096484;28;19908;-78
2022/03/19 02:49:26;;;;;;;;;;;9.10;99.90;;;;;;5095824;28;20452;-78
2022/03/19 02:51:53;;;;;;;;;;;9.10;99.90;;;;;;5094489;28;19999;-78
2022/03/19 02:54:20;;;;;;;;;;;9.00;99.90;;;;;;5096462;28;19920;-78
2022/03/19 02:56:46;;;;;;;;;;;9.00;99.90;;;;;;5095778;28;19908;-78
2022/03/19 02:59:20;;;;;;;;;;;9.00;99.90;;;;;;5096487;28;19916;-78
2022/03/19 03:01:47;;;;;;;;;;;9.00;99.90;;;;;;5095390;28;20357;-78
2022/03/19 03:04:13;;;;;;;;;;;9.10;99.90;;;;;;5096634;28;19915;-78
2022/03/19 03:06:41;;;;;;;;;;;9.00;99.90;;;;;;5100069;28;20272;-78
2022/03/19 03:09:07;;;;;;;;;;;9.00;99.90;;;;;;5117462;28;19892;-78
2022/03/19 03:11:32;;;;;;;;;;;9.00;99.90;;;;;;5099628;28;19998;-77
2022/03/19 03:13:59;;;;;;;;;;;9.00;99.90;;;;;;5096425;28;20361;-77
2022/03/19 03:16:26;;;;;;;;;;;9.00;99.90;;;;;;5095828;28;19908;-78
2022/03/19 03:18:54;;;;;;;;;;;9.00;99.90;;;;;;5095409;28;19953;-77
2022/03/19 03:21:19;;;;;;;;;;;9.00;99.90;;;;;;5095916;28;19908;-77
2022/03/19 03:23:45;;;;;;;;;;;9.00;99.90;;;;;;5095444;28;20267;-77
2022/03/19 03:26:11;;;;;;;;;;;9.00;99.90;;;;;;5095781;28;19908;-78
2022/03/19 03:28:36;;;;;;;;;;;9.00;99.90;;;;;;5095131;28;19933;-77
2022/03/19 03:31:02;;;;;;;;;;;8.90;99.90;;;;;;5093787;28;19908;-78
2022/03/19 03:33:28;;;;;;;;;;;8.90;99.90;;;;;;5095630;28;20011;-78
2022/03/19 03:35:53;;;;;;;;;;;8.90;99.90;;;;;;5095264;28;20972;-78
2022/03/19 03:38:19;;;;;;;;;;;8.90;99.90;;;;;;5094279;28;19908;-78
2022/03/19 03:40:45;;;;;;;;;;;8.90;99.90;;;;;;5094621;28;19952;-77
2022/03/19 03:43:10;;;;;;;;;;;9.00;99.90;;;;;;5095694;28;19915;-77
2022/03/19 03:45:37;;;;;;;;;;;8.90;99.90;;;;;;5095446;28;19957;-77
2022/03/19 03:48:03;;;;;;;;;;;8.90;99.90;;;;;;5095448;28;19908;-77
2022/03/19 03:50:28;;;;;;;;;;;8.90;99.90;;;;;;5095298;28;19935;-77
2022/03/19 03:52:54;;;;;;;;;;;8.80;99.90;;;;;;5107149;28;19979;-78
2022/03/19 03:55:20;;;;;;;;;;;8.80;99.90;;;;;;5102403;28;20403;-78
2022/03/19 03:57:46;;;;;;;;;;;8.80;99.90;;;;;;5095464;28;20269;-77
2022/03/19 04:00:12;;;;;;;;;;;8.80;99.90;;;;;;5095135;28;19908;-78
2022/03/19 04:02:37;;;;;;;;;;;8.70;99.90;;;;;;5094425;28;20318;-76
2022/03/19 04:05:04;;;;;;;;;;;8.80;99.90;;;;;;5094846;28;19912;-77
2022/03/19 04:07:30;;;;;;;;;;;8.80;99.90;;;;;;5093981;28;19908;-77
2022/03/19 04:09:56;;;;;;;;;;;8.70;99.90;;;;;;5094351;28;20283;-77
2022/03/19 04:12:24;;;;;;;;;;;8.70;99.90;;;;;;5094754;28;19912;-77
2022/03/19 04:14:51;;;;;;;;;;;8.70;99.90;;;;;;5094123;28;19919;-77
2022/03/19 04:17:17;;;;;;;;;;;8.60;99.90;;;;;;5094738;28;20369;-77
2022/03/19 04:19:42;;;;;;;;;;;8.60;99.90;;;;;;5093027;28;19938;-77
2022/03/19 04:22:08;;;;;;;;;;;8.60;99.90;;;;;;5094836;28;19908;-76
2022/03/19 04:24:34;;;;;;;;;;;8.60;99.90;;;;;;5094665;28;19978;-77
2022/03/19 04:26:59;;;;;;;;;;;8.60;99.90;;;;;;5094021;28;19911;-77
2022/03/19 04:29:25;;;;;;;;;;;8.60;99.90;;;;;;5094332;28;19908;-77
2022/03/19 04:31:51;;;;;;;;;;;8.50;99.90;;;;;;5094095;28;19915;-77
2022/03/19 04:34:17;;;;;;;;;;;8.50;99.90;;;;;;5093120;28;19912;-77
2022/03/19 04:36:42;;;;;;;;;;;8.50;99.90;;;;;;5100787;28;20067;-76
2022/03/19 04:39:08;;;;;;;;;;;8.50;99.90;;;;;;5096634;28;20384;-77
2022/03/19 04:41:34;;;;;;;;;;;8.50;99.90;;;;;;5094762;28;19912;-78
2022/03/19 04:44:00;;;;;;;;;;;8.40;99.90;;;;;;5093859;28;19908;-77
2022/03/19 04:46:25;;;;;;;;;;;8.50;99.90;;;;;;5094485;28;19908;-77
2022/03/19 04:48:52;;;;;;;;;;;8.40;99.90;;;;;;5094107;28;19908;-77
2022/03/19 04:51:19;;;;;;;;;;;8.40;99.90;;;;;;5093910;28;19908;-77
2022/03/19 04:53:50;;;;;;;;;;;8.40;99.90;;;;;;5093807;28;19935;-76
2022/03/19 04:56:19;;;;;;;;;;;8.40;99.90;;;;;;5094141;28;19912;-77
2022/03/19 04:58:45;;;;;;;;;;;8.30;99.90;;;;;;5093601;28;19908;-77
2022/03/19 05:01:11;;;;;;;;;;;8.30;99.90;;;;;;5094112;28;19908;-77
2022/03/19 05:03:36;;;;;;;;;;;8.20;99.90;;;;;;5092736;28;19908;-77
2022/03/19 05:06:02;;;;;;;;;;;8.20;99.90;;;;;;5093507;28;20455;-77
2022/03/19 05:08:28;;;;;;;;;;;8.10;99.90;;;;;;5097539;28;19911;-77
2022/03/19 05:13:38;;;;;;;;;;;8.10;99.90;;;;;;5093802;28;19966;-77
2022/03/19 05:16:04;;;;;;;;;;;8.00;99.90;;;;;;5093252;28;20039;-77
2022/03/19 05:18:29;;;;;;;;;;;8.00;99.90;;;;;;5093609;28;19934;-77
2022/03/19 05:20:56;;;;;;;;;;;8.00;99.90;;;;;;5092824;28;19940;-77
2022/03/19 05:23:22;;;;;;;;;;;7.90;99.90;;;;;;5094122;28;19968;-77
2022/03/19 05:25:48;;;;;;;;;;;7.90;99.90;;;;;;5092953;28;20408;-77
2022/03/19 05:28:14;;;;;;;;;;;7.90;99.90;;;;;;5093276;28;20003;-78
2022/03/19 05:30:39;;;;;;;;;;;7.80;99.90;;;;;;5093639;28;19951;-77
2022/03/19 05:33:05;;;;;;;;;;;7.70;99.90;;;;;;5092526;28;19965;-77
2022/03/19 05:35:31;;;;;;;;;;;7.70;99.90;;;;;;5093163;28;19908;-77
2022/03/19 05:37:59;;;;;;;;;;;7.70;99.90;;;;;;5092848;28;19919;-77
2022/03/19 05:40:25;;;;;;;;;;;7.70;99.90;;;;;;5093289;28;19908;-77
2022/03/19 05:42:51;;;;;;;;;;;7.70;99.90;;;;;;5092864;28;19915;-77
2022/03/19 05:45:19;;;;;;;;;;;7.70;99.90;;;;;;5093195;28;19908;-77
2022/03/19 05:47:45;;;;;;;;;;;7.70;99.90;;;;;;5092940;28;19951;-77
2022/03/19 05:50:11;;;;;;;;;;;7.70;99.90;;;;;;5093085;28;19951;-77
2022/03/19 05:52:37;;;;;;;;;;;7.70;99.90;;;;;;5092871;28;19976;-77
2022/03/19 05:55:04;;;;;;;;;;;7.70;99.90;;;;;;5092321;28;19920;-77
2022/03/19 05:57:30;;;;;;;;;;;7.80;99.90;;;;;;5092801;28;20426;-77
2022/03/19 05:59:55;;;;;;;;;;;7.80;99.90;;;;;;5092393;28;19908;-77
2022/03/19 06:02:21;;;;;;;;;;;7.70;99.90;;;;;;5092849;28;19908;-77
2022/03/19 06:04:47;;;;;;;;;;;7.70;99.90;;;;;;5092341;28;19909;-77
2022/03/19 06:07:12;;;;;;;;;;;7.70;99.90;;;;;;5093131;28;20280;-77
2022/03/19 06:09:38;;;;;;;;;;;7.70;99.90;;;;;;5092608;28;19934;-77
2022/03/19 06:12:03;;;;;;;;;;;7.70;99.90;;;;;;5092028;28;19912;-77
2022/03/19 06:14:29;;;;;;;;;;;7.80;99.90;;;;;;5092830;28;19923;-77
2022/03/19 06:16:55;;;;;;;;;;;7.70;99.90;;;;;;5092313;28;20002;-77
2022/03/19 06:19:20;;;;;;;;;;;7.70;99.90;;;;;;5092856;28;19962;-77
2022/03/19 06:21:46;;;;;;;;;;;7.80;99.90;;;;;;5092362;28;19936;-77
2022/03/19 06:24:12;;;;;;;;;;;7.80;99.90;;;;;;5094507;28;19912;-77
2022/03/19 06:26:37;;;;;;;;;;;7.80;99.90;;;;;;5093418;28;20268;-77
2022/03/19 06:29:03;;;;;;;;;;;7.90;99.90;;;;;;5092278;28;20033;-77
2022/03/19 06:31:29;;;;;;;;;;;8.00;99.90;;;;;;5092827;28;19915;-77
2022/03/19 06:33:55;;;;;;;;;;;8.10;99.90;;;;;;5090850;28;19916;-77
2022/03/19 06:39:05;;;;;;;;;;;8.20;99.90;;;;;;5092066;28;19957;-77
2022/03/19 06:41:30;;;;;;;;;;;8.20;99.90;;;;;;5092539;28;20374;-77
2022/03/19 06:43:56;;;;;;;;;;;8.20;99.90;;;;;;5091895;28;20006;-77
2022/03/19 06:46:22;;;;;;;;;;;8.20;99.90;;;;;;5092537;28;20384;-77
2022/03/19 06:48:49;;;;;;;;;;;8.30;99.90;;;;;;5091109;28;19909;-77
2022/03/19 06:51:15;;;;;;;;;;;8.30;99.90;;;;;;5092369;28;19915;-77
2022/03/19 06:53:41;;;;;;;;;;;8.30;99.90;;;;;;5092680;28;19927;-78
2022/03/19 06:56:07;;;;;;;;;;;8.30;99.90;;;;;;5092021;28;19986;-77
2022/03/19 06:58:32;;;;;;;;;;;8.40;99.90;;;;;;5092566;28;19912;-77
2022/03/19 07:00:58;;;;;;;;;;;8.40;99.90;;;;;;5091853;28;20265;-77
2022/03/19 07:03:24;;;;;;;;;;;8.50;99.90;;;;;;5092146;28;19998;-77
2022/03/19 07:05:49;;;;;;;;;;;8.50;99.90;;;;;;5092276;28;19908;-77
2022/03/19 07:08:15;;;;;;;;;;;8.60;99.90;;;;;;5091610;28;19923;-77
2022/03/19 07:10:41;;;;;;;;;;;8.60;99.90;;;;;;5092259;28;20294;-77
2022/03/19 07:13:06;;;;;;;;;;;8.80;99.90;;;;;;5092994;28;19908;-76
2022/03/19 07:15:32;;;;;;;;;;;8.80;99.90;;;;;;5096211;28;19908;-77
2022/03/19 07:18:00;;;;;;;;;;;8.90;99.90;;;;;;5094063;28;19917;-77
2022/03/19 07:20:26;;;;;;;;;;;9.10;99.90;;;;;;5095878;28;19913;-77
2022/03/19 07:22:58;;;;;;;;;;;9.10;99.90;;;;;;5095231;28;19995;-76
2022/03/19 07:25:24;;;;;;;;;;;9.20;99.90;;;;;;5095800;28;20049;-78
2022/03/19 07:27:51;;;;;;;;;;;9.30;99.90;;;;;;5095908;28;19908;-77
2022/03/19 07:30:17;;;;;;;;;;;9.30;99.90;;;;;;5095654;28;19915;-77
2022/03/19 07:32:42;;;;;;;;;;;9.30;99.90;;;;;;5095328;28;19999;-77
2022/03/19 07:35:08;;;;;;;;;;;9.50;99.90;;;;;;5094912;28;19916;-77
2022/03/19 07:37:34;;;;;;;;;;;9.50;99.90;;;;;;5095720;28;19908;-77
2022/03/19 07:40:00;;;;;;;;;;;9.60;99.90;;;;;;5098234;28;19916;-77
2022/03/19 07:42:25;;;;;;;;;;;9.60;99.90;;;;;;5096155;28;20360;-77
2022/03/19 07:44:51;;;;;;;;;;;9.70;99.90;;;;;;5095244;28;19947;-77
2022/03/19 07:47:17;;;;;;;;;;;9.70;99.90;;;;;;5093727;28;19912;-77
2022/03/19 07:49:42;;;;;;;;;;;9.80;99.90;;;;;;5094886;28;20344;-76
2022/03/19 07:52:08;;;;;;;;;;;9.80;99.90;;;;;;5094707;28;19947;-78
2022/03/19 07:54:35;;;;;;;;;;;9.90;99.90;;;;;;5094134;28;19916;-77
2022/03/19 07:57:00;;;;;;;;;;;10.00;99.90;;;;;;5092608;28;19912;-77
2022/03/19 07:59:27;;;;;;;;;;;10.00;99.90;;;;;;5094836;28;19950;-77
2022/03/19 08:01:53;;;;;;;;;;;10.10;99.90;;;;;;5094975;28;19922;-77
2022/03/19 08:04:19;;;;;;;;;;;10.10;99.90;;;;;;5094910;28;19908;-77
2022/03/19 08:06:44;;;;;;;;;;;10.10;99.90;;;;;;5095104;28;20377;-77
2022/03/19 08:09:10;;;;;;;;;;;10.20;99.90;;;;;;5094638;28;19919;-77
2022/03/19 08:11:36;;;;;;;;;;;10.20;99.90;;;;;;5095062;28;20023;-77
2022/03/19 08:14:02;;;;;;;;;;;10.20;99.90;;;;;;5094611;28;19916;-76
2022/03/19 08:16:28;;;;;;;;;;;10.30;99.90;;;;;;5094042;28;19912;-77
2022/03/19 08:18:54;;;;;;;;;;;10.30;99.90;;;;;;5094380;28;19919;-77
2022/03/19 08:21:19;;;;;;;;;;;10.30;99.90;;;;;;5093674;28;19909;-77
2022/03/19 08:23:48;;;;;;;;;;;10.40;99.90;;;;;;5093015;28;20349;-77
2022/03/19 08:26:14;;;;;;;;;;;10.40;99.90;;;;;;5094167;28;19916;-77
2022/03/19 08:28:39;;;;;;;;;;;10.50;99.90;;;;;;5094945;28;19915;-78
2022/03/19 08:31:05;;;;;;;;;;;10.50;99.90;;;;;;5092533;28;19947;-79
2022/03/19 08:33:30;;;;;;;;;;;10.60;99.90;;;;;;5094216;28;19917;-78
2022/03/19 08:35:56;;;;;;;;;;;10.50;99.90;;;;;;5094122;28;20273;-78
2022/03/19 08:41:06;;;;;;;;;;;10.70;99.90;;;;;;5093858;28;19950;-78
2022/03/19 08:43:32;;;;;;;;;;;10.70;99.90;;;;;;5094241;28;19912;-78
2022/03/19 08:45:58;;;;;;;;;;;10.70;99.90;;;;;;5093712;28;19934;-78
2022/03/19 08:48:24;;;;;;;;;;;10.80;99.90;;;;;;5093876;28;20007;-75
2022/03/19 08:50:49;;;;;;;;;;;10.80;99.90;;;;;;5093245;28;20019;-77
2022/03/19 08:53:15;;;;;;;;;;;10.80;99.90;;;;;;5092709;28;19924;-77
2022/03/19 08:55:41;;;;;;;;;;;10.80;99.90;;;;;;5102337;28;20082;-76
2022/03/19 08:58:07;;;;;;;;;;;11.00;99.90;;;;;;5099977;28;19908;-76
2022/03/19 09:00:32;;;;;;;;;;;11.00;99.90;;;;;;5093683;28;19908;-77
2022/03/19 09:02:58;;;;;;;;;;;11.00;99.90;;;;;;5093537;28;19908;-76
2022/03/19 09:05:24;;;;;;;;;;;11.10;99.90;;;;;;5093166;28;19912;-77
2022/03/19 09:07:50;;;;;;;;;;;11.10;99.90;;;;;;5093584;28;19995;-77
2022/03/19 09:10:15;;;;;;;;;;;11.10;99.90;;;;;;5092540;28;20010;-78
2022/03/19 09:12:41;;;;;;;;;;;11.20;99.90;;;;;;5093772;28;19908;-77
2022/03/19 09:15:08;;;;;;;;;;;11.20;99.90;;;;;;5092749;28;20341;-79
2022/03/19 09:17:34;;;;;;;;;;;11.20;99.90;;;;;;5093648;28;19912;-78
2022/03/19 09:19:59;;;;;;;;;;;11.20;99.90;;;;;;5092945;28;19915;-76
2022/03/19 09:22:25;;;;;;;;;;;11.20;99.90;;;;;;5093672;28;19998;-77
2022/03/19 09:24:50;;;;;;;;;;;11.30;99.90;;;;;;5093150;28;19913;-77
2022/03/19 09:27:16;;;;;;;;;;;11.30;99.90;;;;;;5092317;28;19991;-77
2022/03/19 09:29:42;;;;;;;;;;;11.30;99.90;;;;;;5092401;28;19969;-78
2022/03/19 09:32:09;;;;;;;;;;;11.30;99.90;;;;;;5092599;28;19908;-77
2022/03/19 09:34:35;;;;;;;;;;;11.30;99.90;;;;;;5093137;28;19965;-78
2022/03/19 09:37:01;;;;;;;;;;;11.40;99.90;;;;;;5092265;28;20007;-76
2022/03/19 09:39:27;;;;;;;;;;;11.40;99.90;;;;;;5093403;28;19909;-78
2022/03/19 09:41:53;;;;;;;;;;;11.40;99.90;;;;;;5092139;28;19908;-77
2022/03/19 09:44:23;;;;;;;;;;;11.50;99.90;;;;;;5092622;28;20375;-78
2022/03/19 09:46:49;;;;;;;;;;;11.50;99.90;;;;;;5092324;28;19920;-78
2022/03/19 09:49:15;;;;;;;;;;;11.50;99.90;;;;;;5092257;28;19970;-77
2022/03/19 09:51:41;;;;;;;;;;;11.60;99.90;;;;;;5092072;28;19962;-78
2022/03/19 09:54:09;;;;;;;;;;;11.60;99.90;;;;;;5091182;28;20127;-78
2022/03/19 09:56:36;;;;;;;;;;;11.60;99.90;;;;;;5093215;28;19920;-78
2022/03/19 09:59:02;;;;;;;;;;;11.60;99.90;;;;;;5091607;28;19908;-77
2022/03/19 10:01:31;;;;;;;;;;;11.60;99.90;;;;;;5092974;28;19909;-77
2022/03/19 10:04:00;;;;;;;;;;;11.60;99.90;;;;;;5093038;28;19908;-78
2022/03/19 10:09:16;;;;;;;;;;;11.60;99.90;;;;;;5092177;28;19914;-78
2022/03/19 10:11:47;;;;;;;;;;;11.60;99.90;;;;;;5103988;28;19908;-78
2022/03/19 10:14:18;;;;;;;;;;;11.60;99.90;;;;;;5094985;28;19924;-78
2022/03/19 10:16:47;;;;;;;;;;;11.70;99.90;;;;;;5092777;28;19920;-78
2022/03/19 10:19:13;;;;;;;;;;;11.60;99.90;;;;;;5092220;28;19913;-78
2022/03/19 10:21:41;;;;;;;;;;;11.70;99.90;;;;;;5092841;28;20409;-79
2022/03/19 10:24:29;;;;;;;;;;;11.70;99.90;;;;;;5091965;28;19915;-78
2022/03/19 10:26:55;;;;;;;;;;;11.80;99.90;;;;;;5091787;28;19915;-79
2022/03/19 10:29:33;;;;;;;;;;;11.80;99.90;;;;;;5092163;28;19916;-78
2022/03/19 10:32:07;;;;;;;;;;;11.90;99.90;;;;;;5092617;28;19908;-78
2022/03/19 10:34:35;;;;;;;;;;;11.90;99.90;;;;;;5092633;28;19920;-78
2022/03/19 10:37:01;;;;;;;;;;;11.90;99.90;;;;;;5092787;28;19977;-79
2022/03/19 10:39:27;;;;;;;;;;;11.90;99.90;;;;;;5092042;28;20360;-79
2022/03/19 10:41:56;;;;;;;;;;;12.00;99.90;;;;;;5092457;28;19952;-78
2022/03/19 10:44:26;;;;;;;;;;;12.00;99.90;;;;;;5092081;28;19994;-79
2022/03/19 10:46:56;;;;;;;;;;;12.00;99.90;;;;;;5093773;28;19908;-78
2022/03/19 10:49:26;;;;;;;;;;;11.90;99.90;;;;;;5095728;28;19931;-79
2022/03/19 10:51:53;;;;;;;;;;;12.00;99.90;;;;;;5096221;28;19920;-79
2022/03/19 10:54:19;;;;;;;;;;;12.00;99.90;;;;;;5095787;28;19971;-79
2022/03/19 10:56:46;;;;;;;;;;;12.00;99.90;;;;;;5096397;28;19915;-78
2022/03/19 10:59:11;;;;;;;;;;;12.00;99.90;;;;;;5095673;28;19915;-78
2022/03/19 11:01:37;;;;;;;;;;;12.00;99.90;;;;;;5096244;28;19908;-79
2022/03/19 11:04:04;;;;;;;;;;;12.10;99.90;;;;;;5096063;28;19915;-79
2022/03/19 11:06:35;;;;;;;;;;;12.00;99.90;;;;;;5095715;28;20364;-79
2022/03/19 11:09:04;;;;;;;;;;;12.00;99.90;;;;;;5096063;28;19909;-79
2022/03/19 11:11:49;;;;;;;;;;;12.00;99.90;;;;;;5095677;28;19909;-79
2022/03/19 11:14:22;;;;;;;;;;;12.00;99.90;;;;;;5095234;28;19916;-79
2022/03/19 11:17:23;;;;;;;;;;;11.90;99.90;;;;;;5096212;28;19908;-79
2022/03/19 11:19:36;;;;;;;;;;;12.00;99.90;;;;;;5095907;28;19991;-78
2022/03/19 11:22:02;;;;;;;;;;;12.10;99.90;;;;;;5101356;28;19916;-77
2022/03/19 11:24:30;;;;;;;;;;;12.00;99.90;;;;;;5108213;28;20276;-79
2022/03/19 11:26:56;;;;;;;;;;;12.10;99.90;;;;;;5095239;28;19947;-79
2022/03/19 11:29:21;;;;;;;;;;;12.10;99.90;;;;;;5095713;28;19954;-79
2022/03/19 11:32:01;;;;;;;;;;;12.10;99.90;;;;;;5096021;28;19958;-79
2022/03/19 11:34:41;;;;;;;;;;;12.10;99.90;;;;;;5095153;28;19920;-78
2022/03/19 11:37:06;;;;;;;;;;;12.10;99.90;;;;;;5095778;28;19914;-78
2022/03/19 11:39:32;;;;;;;;;;;12.20;99.90;;;;;;5095263;28;20331;-78
2022/03/19 11:41:59;;;;;;;;;;;12.20;99.90;;;;;;5095222;28;19915;-78
2022/03/19 11:44:25;;;;;;;;;;;12.20;99.90;;;;;;5095172;28;20242;-78
2022/03/19 11:47:01;;;;;;;;;;;12.30;99.90;;;;;;5095101;28;20414;-77
2022/03/19 11:49:45;;;;;;;;;;;12.30;99.90;;;;;;5094637;28;19943;-78
2022/03/19 11:52:14;;;;;;;;;;;12.30;99.90;;;;;;5094857;28;19987;-77
2022/03/19 11:54:59;;;;;;;;;;;12.40;99.90;;;;;;5094307;28;19951;-78
2022/03/19 11:57:24;;;;;;;;;;;12.30;99.90;;;;;;5094353;28;19943;-78
2022/03/19 11:59:55;;;;;;;;;;;12.30;99.90;;;;;;5094391;28;19954;-78
2022/03/19 12:02:20;;;;;;;;;;;12.30;99.90;;;;;;5094363;28;19908;-77
2022/03/19 12:04:53;;;;;;;;;;;12.40;99.90;;;;;;5094684;28;19908;-78
2022/03/19 12:07:38;;;;;;;;;;;12.50;99.90;;;;;;5094349;28;19908;-79
2022/03/19 12:10:24;;;;;;;;;;;12.50;99.90;;;;;;5094959;28;19912;-77
2022/03/19 12:12:50;;;;;;;;;;;12.40;99.90;;;;;;5103240;28;19930;-80
2022/03/19 12:15:31;;;;;;;;;;;12.40;99.90;;;;;;5114051;28;20003;-76
2022/03/19 12:18:15;;;;;;;;;;;12.40;99.90;;;;;;5096996;28;20368;-80
2022/03/19 12:20:43;;;;;;;;;;;12.40;99.90;;;;;;5095124;28;19956;-78
2022/03/19 12:23:11;;;;;;;;;;;12.40;99.90;;;;;;5092895;28;19969;-77
2022/03/19 12:25:41;;;;;;;;;;;12.40;99.90;;;;;;5094601;28;19908;-77
2022/03/19 12:28:08;;;;;;;;;;;12.40;99.90;;;;;;5094934;28;19908;-80
2022/03/19 12:30:35;;;;;;;;;;;12.50;99.90;;;;;;5094264;28;19919;-78
2022/03/19 12:33:00;;;;;;;;;;;12.60;99.90;;;;;;5094309;28;19908;-77
2022/03/19 12:35:47;;;;;;;;;;;12.70;99.90;;;;;;5101422;28;19917;-77
2022/03/19 12:38:23;;;;;;;;;;;12.70;99.90;;;;;;5094259;28;19908;-76
2022/03/19 12:43:37;;;;;;;;;;;12.80;99.90;;;;;;5094099;28;19915;-77
2022/03/19 12:46:03;;;;;;;;;;;12.80;99.90;;;;;;5094383;28;19908;-79
2022/03/19 12:48:31;;;;;;;;;;;12.80;99.90;;;;;;5092414;28;19912;-78
2022/03/19 12:50:56;;;;;;;;;;;12.80;99.90;;;;;;5093814;28;20343;-78
2022/03/19 12:53:32;;;;;;;;;;;12.80;99.90;;;;;;5093251;28;19963;-78
2022/03/19 12:56:30;;;;;;;;;;;12.90;99.90;;;;;;5094226;28;20006;-80
2022/03/19 12:58:57;;;;;;;;;;;12.80;99.90;;;;;;5081442;28;19908;-79
2022/03/19 13:01:23;;;;;;;;;;;12.80;99.90;;;;;;5092899;28;19912;-79
2022/03/19 13:03:59;;;;;;;;;;;12.80;99.90;;;;;;5093507;28;19908;-79
2022/03/19 13:06:36;;;;;;;;;;;12.80;99.90;;;;;;5098091;28;19915;-78
2022/03/19 13:09:07;;;;;;;;;;;12.90;99.90;;;;;;5093624;28;19912;-79
2022/03/19 13:11:42;;;;;;;;;;;12.90;99.90;;;;;;5092292;28;19943;-79
2022/03/19 13:14:08;;;;;;;;;;;12.90;99.90;;;;;;5093742;28;19916;-79
2022/03/19 13:16:34;;;;;;;;;;;13.00;99.90;;;;;;5094925;28;19916;-78
2022/03/19 13:19:01;;;;;;;;;;;13.10;99.90;;;;;;5104696;28;19950;-79
2022/03/19 13:21:28;;;;;;;;;;;13.10;99.90;;;;;;5092720;28;20395;-79
2022/03/19 13:23:54;;;;;;;;;;;13.10;99.90;;;;;;5093525;28;19919;-80
2022/03/19 13:26:21;;;;;;;;;;;13.20;99.90;;;;;;5092935;28;20279;-78
2022/03/19 13:29:07;;;;;;;;;;;13.30;99.90;;;;;;5091597;28;19959;-79
2022/03/19 13:31:34;;;;;;;;;;;13.30;99.90;;;;;;5091892;28;19912;-78
2022/03/19 13:34:01;;;;;;;;;;;13.40;99.90;;;;;;5092219;28;20003;-78
2022/03/19 13:36:31;;;;;;;;;;;13.40;99.90;;;;;;5092383;28;19947;-79
2022/03/19 13:38:58;;;;;;;;;;;13.50;99.90;;;;;;5092904;28;19947;-79
2022/03/19 13:41:24;;;;;;;;;;;13.50;99.90;;;;;;5092210;28;19918;-78
2022/03/19 13:43:49;;;;;;;;;;;13.50;99.90;;;;;;5091512;28;19991;-78
2022/03/19 13:46:16;;;;;;;;;;;13.50;99.90;;;;;;5092332;28;20380;-78
2022/03/19 13:48:42;;;;;;;;;;;13.60;99.90;;;;;;5092695;28;19915;-78
2022/03/19 13:51:07;;;;;;;;;;;13.60;99.90;;;;;;5089249;28;19908;-78
2022/03/19 13:53:41;;;;;;;;;;;13.60;99.90;;;;;;5091026;28;20269;-79
2022/03/19 13:56:06;;;;;;;;;;;13.60;99.90;;;;;;5092137;28;19953;-79
2022/03/19 13:58:32;;;;;;;;;;;13.60;99.90;;;;;;5091506;28;19908;-79
2022/03/19 14:00:57;;;;;;;;;;;13.60;99.90;;;;;;5091192;28;20308;-79
2022/03/19 14:03:23;;;;;;;;;;;13.60;99.90;;;;;;5090669;28;19919;-78
2022/03/19 14:05:51;;;;;;;;;;;13.60;99.90;;;;;;5092748;28;20323;-78
2022/03/19 14:08:18;;;;;;;;;;;13.60;99.90;;;;;;5092083;28;19919;-77
2022/03/19 14:10:44;;;;;;;;;;;13.60;99.90;;;;;;5092350;28;19924;-78
2022/03/19 14:13:11;;;;;;;;;;;13.60;99.90;;;;;;5092023;28;19955;-78
2022/03/19 14:15:38;;;;;;;;;;;13.70;99.90;;;;;;5091360;28;20428;-78
2022/03/19 14:18:04;;;;;;;;;;;13.70;99.90;;;;;;5088904;28;20371;-78
2022/03/19 14:20:29;;;;;;;;;;;13.70;99.90;;;;;;5090934;28;19912;-78
2022/03/19 14:22:55;;;;;;;;;;;13.70;99.90;;;;;;5094996;28;19912;-79
2022/03/19 14:25:21;;;;;;;;;;;13.70;99.90;;;;;;5095376;28;19908;-79
2022/03/19 14:27:47;;;;;;;;;;;13.70;99.90;;;;;;5101383;28;19908;-79
2022/03/19 14:30:13;;;;;;;;;;;13.80;99.90;;;;;;5107844;28;19915;-78
2022/03/19 14:32:40;;;;;;;;;;;13.80;99.90;;;;;;5094810;28;19912;-78
2022/03/19 14:35:06;;;;;;;;;;;13.90;99.90;;;;;;5096402;28;20376;-78
2022/03/19 14:37:32;;;;;;;;;;;14.00;99.90;;;;;;5095566;28;19917;-78
2022/03/19 14:39:58;;;;;;;;;;;14.00;99.90;;;;;;5095764;28;20281;-77